Time;durP1;ratioP1;P1;durP2;ratioP2;P2;SDS_P1;SDS_P2;PMS_P1;PMS_P2;Temp;Humidity;BMP_temperature;BMP_pressure;BME280_temperature;BME280_humidity;BME280_pressure;Samples;Min_cycle;Max_cycle;Signal;HPM_P1;HPM_P2
2021/08/06 13:31:31;;;;;;;7.42;4.72;;;;;;;19.78;100.00;99543.86;1821920;77;22694;-89
2021/08/06 13:33:59;;;;;;;7.33;3.80;;;;;;;19.65;100.00;99546.73;1775340;79;21077;-91
2021/08/06 13:36:25;;;;;;;5.72;3.50;;;;;;;19.62;100.00;99525.89;1749100;80;21076;-89
2021/08/06 13:38:52;;;;;;;6.97;4.62;;;;;;;19.61;100.00;99540.33;1776800;80;21498;-90
2021/08/06 13:41:29;;;;;;;10.72;4.60;;;;;;;19.63;100.00;99562.92;1700166;83;21526;-92
2021/08/06 13:43:56;;;;;;;9.43;4.62;;;;;;;19.65;100.00;99502.39;1682681;82;21049;-92
2021/08/06 13:46:23;;;;;;;6.87;3.83;;;;;;;19.63;100.00;99506.11;1713854;82;21100;-93
2021/08/06 13:48:50;;;;;;;10.70;4.45;;;;;;;19.63;100.00;99539.95;1736478;82;21060;-94
2021/08/06 13:51:16;;;;;;;8.23;4.30;;;;;;;19.64;100.00;99572.86;1686895;83;21018;-91
2021/08/06 13:53:43;;;;;;;12.75;4.40;;;;;;;19.66;100.00;99594.09;1707491;82;21047;-93
2021/08/06 13:56:10;;;;;;;12.37;5.10;;;;;;;19.67;100.00;99602.64;1727778;83;21096;-93
2021/08/06 13:58:36;;;;;;;8.33;4.17;;;;;;;19.68;100.00;99584.87;1708964;83;21531;-91
2021/08/06 14:01:03;;;;;;;14.45;3.55;;;;;;;19.64;100.00;99581.17;1691441;84;21128;-92
2021/08/06 14:03:30;;;;;;;7.67;3.00;;;;;;;19.59;100.00;99556.52;1713660;82;21050;-93
2021/08/06 14:05:57;;;;;;;9.30;4.40;;;;;;;19.51;100.00;99514.55;1712018;82;21465;-91
2021/08/06 14:08:23;;;;;;;8.98;2.90;;;;;;;19.41;100.00;99516.51;1736394;82;21500;-93
2021/08/06 14:10:51;;;;;;;8.15;3.70;;;;;;;19.31;100.00;99504.02;1685351;82;21055;-91
2021/08/06 14:13:20;;;;;;;11.18;4.35;;;;;;;19.23;100.00;99522.44;1733655;82;21087;-92
2021/08/06 14:15:46;;;;;;;18.30;4.85;;;;;;;19.16;100.00;99545.81;1714326;82;21058;-93
2021/08/06 14:18:14;;;;;;;20.02;6.62;;;;;;;19.12;100.00;99517.25;1710019;82;21072;-93
2021/08/06 14:20:43;;;;;;;29.00;10.13;;;;;;;19.09;100.00;99511.05;1739569;81;21662;-90
2021/08/06 14:23:10;;;;;;;30.30;8.15;;;;;;;19.08;100.00;99519.12;1699477;82;21100;-95
2021/08/06 14:25:37;;;;;;;29.90;8.23;;;;;;;19.07;100.00;99520.30;1725165;82;21127;-92
2021/08/06 14:28:05;;;;;;;16.00;6.55;;;;;;;19.07;100.00;99507.84;1714656;82;21099;-94
2021/08/06 14:30:31;;;;;;;16.42;5.97;;;;;;;19.09;100.00;99530.44;1708321;82;21107;-94
2021/08/06 14:32:58;;;;;;;22.17;6.20;;;;;;;19.09;100.00;99530.44;1710009;82;21144;-93
2021/08/06 14:35:25;;;;;;;15.18;6.45;;;;;;;19.10;100.00;99541.13;1686412;83;21068;-94
2021/08/06 14:37:52;;;;;;;14.83;5.03;;;;;;;19.10;100.00;99541.13;1746299;82;21048;-95
2021/08/06 14:40:19;;;;;;;17.23;4.60;;;;;;;19.14;100.00;99549.54;1729537;82;21104;-94
2021/08/06 14:42:45;;;;;;;18.12;5.62;;;;;;;19.14;100.00;99535.70;1717278;82;21083;-92
2021/08/06 14:45:12;;;;;;;14.98;4.58;;;;;;;19.14;100.00;99519.08;1729428;82;21081;-95
2021/08/06 14:47:39;;;;;;;17.32;5.22;;;;;;;19.16;100.00;99525.04;1729709;82;21071;-95
2021/08/06 14:50:07;;;;;;;10.75;4.80;;;;;;;19.19;100.00;99529.88;1706876;82;21064;-93
2021/08/06 14:52:33;;;;;;;11.28;4.20;;;;;;;19.21;100.00;99519.22;1729691;82;22038;-93
2021/08/06 14:55:01;;;;;;;8.98;4.03;;;;;;;19.21;100.00;99519.22;1733835;82;21307;-92
2021/08/06 14:57:28;;;;;;;12.47;3.45;;;;;;;19.26;100.00;99525.90;1736677;81;21068;-94
2021/08/06 14:59:55;;;;;;;8.75;3.15;;;;;;;19.29;100.00;99516.86;1678486;84;21563;-90
2021/08/06 15:02:22;;;;;;;14.30;3.65;;;;;;;19.30;100.00;99515.69;1720466;82;21135;-91
2021/08/06 15:04:48;;;;;;;21.85;6.95;;;;;;;19.32;100.00;99516.13;1737790;82;21202;-91
2021/08/06 15:07:15;;;;;;;46.02;14.83;;;;;;;19.33;100.00;99521.08;1736447;82;21060;-93
2021/08/06 15:09:43;;;;;;;36.90;14.83;;;;;;;19.31;100.00;99522.84;1705966;82;21179;-92
2021/08/06 15:12:09;;;;;;;30.90;13.15;;;;;;;19.29;100.00;99522.40;1686161;83;21100;-91
2021/08/06 15:14:37;;;;;;;51.63;16.60;;;;;;;19.28;100.00;99527.70;1719783;82;21046;-92
2021/08/06 15:17:05;;;;;;;50.50;15.80;;;;;;;19.27;100.00;99535.00;1719876;82;21052;-93
2021/08/06 15:19:32;;;;;;;64.77;16.85;;;;;;;19.24;100.00;99535.14;1706933;84;21092;-93
2021/08/06 15:22:01;;;;;;;50.40;13.68;;;;;;;19.27;100.00;99551.03;1685201;84;21147;-92
2021/08/06 15:24:27;;;;;;;29.87;7.40;;;;;;;19.31;100.00;99565.78;1723114;82;21073;-92
2021/08/06 15:26:54;;;;;;;22.05;7.50;;;;;;;19.35;100.00;99564.47;1739394;81;21052;-93
2021/08/06 15:29:21;;;;;;;20.72;5.60;;;;;;;19.44;100.00;99591.98;1729829;82;21103;-92
2021/08/06 15:31:48;;;;;;;11.68;5.53;;;;;;;19.44;100.00;99591.98;1736376;81;21123;-93
2021/08/06 15:34:14;;;;;;;12.23;4.17;;;;;;;19.50;100.00;99598.84;1732461;82;21097;-95
2021/08/06 15:36:41;;;;;;;10.98;4.30;;;;;;;19.53;100.00;99585.66;1735429;82;21183;-95
2021/08/06 15:39:09;;;;;;;11.75;3.35;;;;;;;19.56;100.00;99584.95;1733214;82;21071;-96
2021/08/06 15:41:35;;;;;;;9.40;3.83;;;;;;;19.61;100.00;99594.37;1689899;82;20961;-94
2021/08/06 15:44:04;;;;;;;9.20;3.40;;;;;;;19.66;100.00;99588.55;1735813;82;21092;-90
2021/08/06 15:46:31;;;;;;;7.40;3.17;;;;;;;19.70;100.00;99585.28;1714049;82;21077;-93
2021/08/06 15:48:57;;;;;;;7.78;3.70;;;;;;;19.71;100.00;99597.99;1710977;82;21052;-93
2021/08/06 15:51:24;;;;;;;9.83;4.05;;;;;;;19.71;100.00;99596.61;1710159;83;21084;-90
2021/08/06 15:53:51;;;;;;;6.67;3.45;;;;;;;19.71;100.00;99600.77;1694429;83;21036;-91
2021/08/06 15:56:17;;;;;;;5.65;2.85;;;;;;;19.69;100.00;99587.84;1735510;82;21123;-92
2021/08/06 15:58:44;;;;;;;6.65;3.08;;;;;;;19.63;100.00;99579.55;1702316;84;21121;-89
2021/08/06 16:01:11;;;;;;;7.22;3.05;;;;;;;19.58;100.00;99580.41;1698444;84;22210;-89
2021/08/06 16:03:37;;;;;;;5.95;2.70;;;;;;;19.53;100.00;99564.87;1739740;82;21112;-90
2021/08/06 16:06:06;;;;;;;6.03;2.90;;;;;;;19.49;100.00;99559.27;1728325;82;21223;-91
2021/08/06 16:08:34;;;;;;;9.40;4.47;;;;;;;19.48;100.00;99555.45;1714180;82;21095;-91
2021/08/06 16:11:01;;;;;;;11.65;4.17;;;;;;;19.46;100.00;99571.63;1674655;85;21782;-90
2021/08/06 16:13:29;;;;;;;9.45;4.30;;;;;;;19.44;100.00;99587.24;1662287;84;21097;-92
2021/08/06 16:15:56;;;;;;;12.98;5.75;;;;;;;19.40;100.00;99580.02;1688123;84;20968;-90
2021/08/06 16:18:22;;;;;;;10.32;5.17;;;;;;;19.33;100.00;99585.59;1710351;83;21083;-90
2021/08/06 16:20:49;;;;;;;9.10;3.40;;;;;;;19.29;100.00;99577.00;1722744;82;21068;-90
2021/08/06 16:23:15;;;;;;;6.75;3.30;;;;;;;19.25;100.00;99572.73;1696064;82;21108;-90
2021/08/06 16:25:42;;;;;;;8.78;3.25;;;;;;;19.21;100.00;99577.38;1722674;82;21111;-90
2021/08/06 16:28:08;;;;;;;6.78;2.40;;;;;;;19.18;100.00;99580.08;1681449;84;21596;-89
2021/08/06 16:30:35;;;;;;;8.10;3.08;;;;;;;19.15;100.00;99586.34;1724425;82;21082;-90
2021/08/06 16:33:01;;;;;;;6.78;3.20;;;;;;;19.11;100.00;99580.69;1724562;81;21070;-89
2021/08/06 16:35:28;;;;;;;6.92;3.15;;;;;;;19.10;100.00;99597.09;1761124;81;21016;-93
2021/08/06 16:37:55;;;;;;;8.05;3.17;;;;;;;19.09;100.00;99603.81;1731674;82;21064;-92
2021/08/06 16:40:22;;;;;;;4.85;3.25;;;;;;;19.08;100.00;99600.80;1730435;82;21174;-91
2021/08/06 16:42:49;;;;;;;7.67;3.10;;;;;;;19.04;100.00;99609.03;1727495;83;21039;-91
2021/08/06 16:45:16;;;;;;;8.65;3.42;;;;;;;19.03;100.00;99624.60;1706924;83;21045;-92
2021/08/06 16:47:43;;;;;;;9.13;3.27;;;;;;;19.02;100.00;99636.27;1706805;82;21051;-90
2021/08/06 16:50:10;;;;;;;10.58;3.90;;;;;;;18.98;100.00;99635.35;1747082;81;21047;-91
2021/08/06 16:52:38;;;;;;;10.35;3.65;;;;;;;18.98;100.00;99635.94;1760609;81;21036;-91
2021/08/06 16:55:06;;;;;;;9.13;4.03;;;;;;;18.98;100.00;99627.64;1732145;81;21108;-90
2021/08/06 16:57:35;;;;;;;6.70;3.17;;;;;;;18.98;100.00;99627.64;1730315;82;21075;-92
2021/08/06 17:00:04;;;;;;;5.75;2.75;;;;;;;18.96;100.00;99643.20;1706109;82;21084;-91
2021/08/06 17:02:31;;;;;;;7.22;3.27;;;;;;;18.94;100.00;99633.09;1734817;81;21043;-91
2021/08/06 17:04:58;;;;;;;10.68;3.30;;;;;;;18.94;100.00;99641.39;1710372;83;21171;-92
2021/08/06 17:07:26;;;;;;;8.33;3.35;;;;;;;18.94;100.00;99639.19;1727038;82;20979;-90
2021/08/06 17:09:54;;;;;;;7.28;2.90;;;;;;;18.91;100.00;99625.48;1751281;81;21072;-93
2021/08/06 17:12:20;;;;;;;5.95;2.60;;;;;;;18.88;100.00;99633.91;1718108;82;21164;-89
2021/08/06 17:14:49;;;;;;;4.55;2.17;;;;;;;18.86;100.00;99626.53;1708983;82;21066;-89
2021/08/06 17:17:16;;;;;;;6.67;3.08;;;;;;;18.82;100.00;99628.42;1733086;82;20949;-92
2021/08/06 17:19:43;;;;;;;5.03;2.87;;;;;;;18.81;100.00;99636.48;1722421;82;21590;-90
2021/08/06 17:22:10;;;;;;;8.33;2.90;;;;;;;18.80;100.00;99644.58;1730735;82;21626;-89
2021/08/06 17:24:37;;;;;;;5.30;2.75;;;;;;;18.80;100.00;99644.58;1721948;82;21047;-95
2021/08/06 17:27:05;;;;;;;7.67;2.42;;;;;;;18.78;100.00;99643.33;1761998;81;21088;-96
2021/08/06 17:29:32;;;;;;;4.15;2.30;;;;;;;18.76;100.00;99638.13;1761197;81;21618;-95
2021/08/06 17:31:59;;;;;;;4.47;2.33;;;;;;;18.73;100.00;99626.36;1707067;82;21060;-95
2021/08/06 17:34:26;;;;;;;5.42;2.30;;;;;;;18.68;100.00;99622.47;1707579;84;21052;-95
2021/08/06 17:36:52;;;;;;;4.37;2.62;;;;;;;18.68;100.00;99622.47;1706832;84;22230;-95
2021/08/06 17:39:19;;;;;;;5.95;2.95;;;;;;;18.66;100.00;99613.72;1706692;84;21116;-92
2021/08/06 17:41:46;;;;;;;9.30;2.95;;;;;;;18.64;100.00;99605.78;1710557;82;21030;-91
2021/08/06 17:44:13;;;;;;;5.70;2.75;;;;;;;18.64;100.00;99605.78;1706943;82;20948;-92
2021/08/06 17:46:39;;;;;;;3.90;2.65;;;;;;;18.64;100.00;99617.41;1743981;81;21541;-91
2021/08/06 17:49:06;;;;;;;3.70;2.15;;;;;;;18.63;100.00;99612.46;1720836;82;21088;-92
2021/08/06 17:51:34;;;;;;;3.10;2.05;;;;;;;18.63;100.00;99615.81;1715548;82;21576;-91
2021/08/06 17:54:00;;;;;;;4.30;2.00;;;;;;;18.60;100.00;99617.91;1725265;83;21079;-91
2021/08/06 17:56:30;;;;;;;5.67;1.95;;;;;;;18.58;100.00;99610.54;1693732;82;21044;-90
2021/08/06 17:58:56;;;;;;;2.55;1.70;;;;;;;18.56;100.00;99607.31;1717115;82;21536;-90
2021/08/06 18:01:23;;;;;;;4.58;2.27;;;;;;;18.56;100.00;99608.11;1733205;82;21071;-90
2021/08/06 18:03:50;;;;;;;6.10;2.37;;;;;;;18.56;100.00;99619.77;1717710;82;21534;-90
2021/08/06 18:06:17;;;;;;;5.92;2.75;;;;;;;18.58;100.00;99621.61;1724768;82;21764;-91
2021/08/06 18:08:44;;;;;;;5.53;2.40;;;;;;;18.57;100.00;99623.58;1717101;82;22007;-90
2021/08/06 18:11:11;;;;;;;4.37;1.82;;;;;;;18.55;100.00;99638.92;1736614;82;21105;-92
2021/08/06 18:13:39;;;;;;;3.87;2.42;;;;;;;18.55;100.00;99638.92;1695274;84;22130;-91
2021/08/06 18:16:08;;;;;;;4.03;2.15;;;;;;;18.56;100.00;99645.46;1703852;82;21127;-92
2021/08/06 18:18:34;;;;;;;3.33;2.20;;;;;;;18.56;100.00;99654.34;1684848;82;21116;-92
2021/08/06 18:21:01;;;;;;;6.20;2.65;;;;;;;18.55;100.00;99652.75;1733279;82;22038;-91
2021/08/06 18:23:28;;;;;;;5.83;3.30;;;;;;;18.56;100.00;99658.49;1726631;82;21096;-91
2021/08/06 18:25:54;;;;;;;4.30;2.52;;;;;;;18.57;100.00;99655.94;1698118;82;21503;-91
2021/08/06 18:28:24;;;;;;;9.70;3.80;;;;;;;18.56;100.00;99657.91;1707987;84;21005;-91
2021/08/06 18:30:51;;;;;;;5.22;2.72;;;;;;;18.57;100.00;99642.11;1726461;81;21096;-90
2021/08/06 18:33:22;;;;;;;5.22;2.80;;;;;;;18.57;100.00;99637.41;1736896;82;20993;-91
2021/08/06 18:35:48;;;;;;;8.73;3.35;;;;;;;18.58;100.00;99636.82;1736419;82;21064;-90
2021/08/06 18:38:15;;;;;;;5.72;3.10;;;;;;;18.58;100.00;99644.53;1707633;82;20996;-91
2021/08/06 18:40:42;;;;;;;6.85;2.95;;;;;;;18.59;100.00;99641.19;1725885;82;21100;-91
2021/08/06 18:43:09;;;;;;;8.13;3.80;;;;;;;18.57;100.00;99653.17;1714933;83;21081;-90
2021/08/06 18:45:35;;;;;;;6.15;2.80;;;;;;;18.53;100.00;99651.70;1706950;82;21556;-90
2021/08/06 18:48:02;;;;;;;8.78;3.55;;;;;;;18.50;100.00;99664.06;1707300;84;21057;-89
2021/08/06 18:50:32;;;;;;;6.85;2.75;;;;;;;18.48;100.00;99661.06;1717898;82;21337;-90
2021/08/06 18:53:02;;;;;;;8.35;3.30;;;;;;;18.47;100.00;99666.93;1743116;81;21033;-91
2021/08/06 18:55:29;;;;;;;7.75;3.00;;;;;;;18.46;100.00;99668.09;1712818;82;21594;-92
2021/08/06 18:57:57;;;;;;;5.08;2.83;;;;;;;18.42;100.00;99666.63;1680234;84;22053;-90
2021/08/06 19:00:24;;;;;;;7.72;2.87;;;;;;;18.40;100.00;99668.93;1721521;82;21171;-90
2021/08/06 19:02:53;;;;;;;8.28;3.87;;;;;;;18.39;100.00;99676.19;1734487;82;21041;-90
2021/08/06 19:05:19;;;;;;;7.45;3.60;;;;;;;18.40;100.00;99684.73;1722912;82;21040;-90
2021/08/06 19:07:46;;;;;;;7.12;3.27;;;;;;;18.38;100.00;99679.53;1718698;82;20963;-91
2021/08/06 19:10:13;;;;;;;4.45;2.65;;;;;;;18.36;100.00;99676.31;1712923;82;21574;-91
2021/08/06 19:12:40;;;;;;;5.05;2.62;;;;;;;18.35;100.00;99678.86;1731664;82;21048;-90
2021/08/06 19:15:09;;;;;;;4.10;2.30;;;;;;;18.35;100.00;99676.68;1722466;82;21375;-90
2021/08/06 19:17:35;;;;;;;3.12;2.22;;;;;;;18.31;100.00;99676.56;1709774;84;21171;-94
2021/08/06 19:20:04;;;;;;;4.30;1.80;;;;;;;18.30;100.00;99674.96;1730085;82;21029;-89
2021/08/06 19:22:31;;;;;;;3.92;2.52;;;;;;;18.28;100.00;99679.23;1736762;82;21092;-94
2021/08/06 19:24:58;;;;;;;10.93;2.35;;;;;;;18.25;100.00;99674.63;1730893;82;21524;-90
2021/08/06 19:27:25;;;;;;;5.08;2.33;;;;;;;18.25;100.00;99668.30;1754157;81;21045;-95
2021/08/06 19:29:53;;;;;;;3.15;1.82;;;;;;;18.23;100.00;99666.45;1719570;83;21112;-94
2021/08/06 19:32:20;;;;;;;2.65;1.95;;;;;;;18.22;100.00;99664.83;1726247;82;21053;-93
2021/08/06 19:34:49;;;;;;;4.15;2.05;;;;;;;18.22;100.00;99668.97;1724561;82;21001;-90
2021/08/06 19:37:16;;;;;;;5.92;2.40;;;;;;;18.22;100.00;99666.20;1705472;83;20991;-95
2021/08/06 19:39:43;;;;;;;2.75;1.90;;;;;;;18.21;100.00;99679.81;1703038;83;21065;-90
2021/08/06 19:42:10;;;;;;;2.85;2.22;;;;;;;18.22;100.00;99667.59;1703595;83;21080;-95
2021/08/06 19:44:37;;;;;;;5.72;2.40;;;;;;;18.23;100.00;99675.55;1691808;83;21702;-91
2021/08/06 19:47:04;;;;;;;5.00;2.45;;;;;;;18.25;100.00;99674.63;1717575;81;21135;-90
2021/08/06 19:49:31;;;;;;;7.67;3.05;;;;;;;18.26;100.00;99670.69;1697486;84;21057;-89
2021/08/06 19:51:58;;;;;;;7.60;3.42;;;;;;;18.29;100.00;99659.50;1703921;83;21045;-93
2021/08/06 19:54:26;;;;;;;5.80;3.05;;;;;;;18.30;100.00;99666.66;1720292;83;21128;-93
2021/08/06 19:56:53;;;;;;;6.80;3.25;;;;;;;18.30;100.00;99656.98;1700179;83;21037;-89
2021/08/06 19:59:21;;;;;;;5.10;2.90;;;;;;;18.32;100.00;99666.30;1669525;84;21611;-94
2021/08/06 20:01:47;;;;;;;5.50;3.35;;;;;;;18.33;100.00;99667.34;1736651;82;21524;-90
2021/08/06 20:04:14;;;;;;;5.17;2.83;;;;;;;18.33;100.00;99668.72;1741291;82;21092;-94
2021/08/06 20:06:41;;;;;;;4.53;2.55;;;;;;;18.33;100.00;99668.72;1733414;82;21052;-89
2021/08/06 20:09:10;;;;;;;6.15;3.30;;;;;;;18.33;100.00;99672.87;1720899;82;21084;-89
2021/08/06 20:11:41;;;;;;;5.20;2.95;;;;;;;18.32;100.00;99669.06;1710202;82;21092;-92
2021/08/06 20:14:07;;;;;;;5.12;2.72;;;;;;;18.31;100.00;99664.11;1709770;82;21049;-89
2021/08/06 20:16:34;;;;;;;5.03;2.75;;;;;;;18.29;100.00;99669.19;1715871;82;21146;-94
2021/08/06 20:19:02;;;;;;;4.58;2.85;;;;;;;18.29;100.00;99671.95;1708205;84;21030;-94
2021/08/06 20:21:30;;;;;;;6.15;2.67;;;;;;;18.28;100.00;99668.17;1710073;82;21049;-89
2021/08/06 20:23:57;;;;;;;4.22;2.75;;;;;;;18.25;100.00;99665.53;1708569;82;21054;-95
2021/08/06 20:26:25;;;;;;;3.02;2.15;;;;;;;18.23;100.00;99677.52;1724485;82;21068;-94
2021/08/06 20:28:53;;;;;;;6.58;2.72;;;;;;;18.21;100.00;99675.08;1724774;82;21077;-89
2021/08/06 20:31:19;;;;;;;5.25;2.95;;;;;;;18.17;100.00;99674.16;1698348;82;21081;-90
2021/08/06 20:33:46;;;;;;;3.62;2.92;;;;;;;18.14;100.00;99665.19;1725788;83;21049;-90
2021/08/06 20:36:12;;;;;;;3.05;2.50;;;;;;;18.11;100.00;99668.66;1724102;83;21057;-93
2021/08/06 20:38:39;;;;;;;6.50;3.60;;;;;;;18.09;100.00;99667.40;1716008;83;21267;-93
2021/08/06 20:41:07;;;;;;;5.22;2.47;;;;;;;18.05;100.00;99669.48;1697440;83;21057;-93
2021/08/06 20:43:34;;;;;;;4.55;3.12;;;;;;;18.04;100.00;99669.83;1686955;85;21079;-94
2021/08/06 20:46:01;;;;;;;4.15;2.50;;;;;;;18.03;100.00;99664.08;1704636;82;21087;-95
2021/08/06 20:48:28;;;;;;;3.17;2.58;;;;;;;18.01;100.00;99661.66;1700027;83;21068;-95
2021/08/06 20:50:54;;;;;;;4.87;2.22;;;;;;;18.00;100.00;99658.67;1697900;83;21097;-89
2021/08/06 20:53:20;;;;;;;3.87;2.40;;;;;;;18.01;100.00;99654.74;1723615;83;21053;-93
2021/08/06 20:55:48;;;;;;;2.75;1.82;;;;;;;18.01;100.00;99656.70;1710005;83;21116;-90
2021/08/06 20:58:15;;;;;;;3.85;2.98;;;;;;;18.01;100.00;99647.83;1726626;83;21045;-95
2021/08/06 21:00:42;;;;;;;4.47;2.40;;;;;;;18.00;100.00;99642.09;1720424;83;21124;-95
2021/08/06 21:03:08;;;;;;;3.95;2.30;;;;;;;18.01;100.00;99635.39;1717780;83;21057;-89
2021/08/06 21:05:36;;;;;;;4.90;2.80;;;;;;;18.02;100.00;99625.13;1720520;83;21113;-94
2021/08/06 21:08:05;;;;;;;6.47;2.08;;;;;;;18.02;100.00;99638.38;1702132;83;21575;-89
2021/08/06 21:10:33;;;;;;;3.75;2.17;;;;;;;18.04;100.00;99632.51;1709335;83;21489;-95
2021/08/06 21:13:02;;;;;;;3.15;2.10;;;;;;;18.04;100.00;99629.16;1698508;84;21574;-94
2021/08/06 21:15:29;;;;;;;3.00;2.17;;;;;;;18.04;100.00;99626.39;1711787;83;21045;-93
2021/08/06 21:17:57;;;;;;;2.40;1.75;;;;;;;18.06;100.00;99626.05;1723954;82;21088;-90
2021/08/06 21:20:23;;;;;;;4.92;2.25;;;;;;;18.08;100.00;99614.66;1707680;84;21132;-90
2021/08/06 21:22:50;;;;;;;4.45;2.67;;;;;;;18.07;100.00;99615.80;1707558;82;21027;-94
2021/08/06 21:25:17;;;;;;;6.87;2.40;;;;;;;18.05;100.00;99611.98;1713577;82;21056;-95
2021/08/06 21:27:44;;;;;;;6.35;2.52;;;;;;;18.04;100.00;99604.28;1718733;82;21073;-95
2021/08/06 21:30:13;;;;;;;3.17;2.37;;;;;;;18.00;100.00;99596.48;1715292;82;21060;-95
2021/08/06 21:32:39;;;;;;;3.42;2.27;;;;;;;17.99;100.00;99586.56;1745605;81;21114;-95
2021/08/06 21:35:07;;;;;;;3.00;2.02;;;;;;;17.98;100.00;99578.64;1747942;81;21058;-90
2021/08/06 21:37:34;;;;;;;3.37;2.00;;;;;;;17.97;100.00;99566.75;1733962;81;21051;-89
2021/08/06 21:40:05;;;;;;;3.52;2.45;;;;;;;17.96;100.00;99556.06;1731325;81;21122;-89
2021/08/06 21:42:31;;;;;;;4.85;2.15;;;;;;;17.95;100.00;99559.41;1746806;81;21008;-89
2021/08/06 21:44:58;;;;;;;2.75;1.98;;;;;;;17.94;100.00;99553.64;1714643;81;21139;-95
2021/08/06 21:47:25;;;;;;;3.77;2.77;;;;;;;17.93;100.00;99548.48;1655257;84;21073;-94
2021/08/06 21:49:51;;;;;;;5.12;2.75;;;;;;;17.91;100.00;99544.67;1737890;81;21095;-95
2021/08/06 21:52:18;;;;;;;3.45;2.17;;;;;;;17.91;100.00;99545.26;1739239;81;21098;-94
2021/08/06 21:54:47;;;;;;;2.87;2.25;;;;;;;17.88;100.00;99561.97;1756180;81;21039;-94
2021/08/06 21:57:14;;;;;;;5.42;3.00;;;;;;;17.87;100.00;99570.59;1722205;82;21395;-89
2021/08/06 21:59:40;;;;;;;3.10;1.95;;;;;;;17.86;100.00;99589.14;1753138;81;21084;-90
2021/08/06 22:02:06;;;;;;;5.62;2.08;;;;;;;17.84;100.00;99599.73;1729326;82;21051;-89
2021/08/06 22:04:33;;;;;;;5.72;2.98;;;;;;;17.82;100.00;99615.85;1718002;81;21299;-89
2021/08/06 22:07:00;;;;;;;3.75;2.55;;;;;;;17.76;100.00;99608.94;1702914;82;21044;-89
2021/08/06 22:09:27;;;;;;;4.12;2.50;;;;;;;17.73;100.00;99604.08;1697452;84;21029;-89
2021/08/06 22:11:54;;;;;;;4.17;2.85;;;;;;;17.70;100.00;99600.64;1712712;82;21080;-89
2021/08/06 22:14:21;;;;;;;4.12;2.65;;;;;;;17.66;100.00;99602.52;1730494;82;22332;-89
2021/08/06 22:16:47;;;;;;;2.40;2.20;;;;;;;17.61;100.00;99603.55;1731033;82;21053;-90
2021/08/06 22:19:13;;;;;;;5.83;3.05;;;;;;;17.57;100.00;99607.56;1740805;82;21182;-89
2021/08/06 22:21:41;;;;;;;7.25;2.62;;;;;;;17.54;100.00;99612.41;1721686;82;21093;-95
2021/08/06 22:24:08;;;;;;;4.30;2.08;;;;;;;17.51;100.00;99614.48;1717000;82;22040;-95
2021/08/06 22:26:34;;;;;;;3.92;2.70;;;;;;;17.48;100.00;99624.86;1729576;82;21508;-95
2021/08/06 22:29:01;;;;;;;2.98;2.10;;;;;;;17.44;100.00;99643.84;1706315;82;21051;-95
2021/08/06 22:31:28;;;;;;;6.15;2.75;;;;;;;17.39;100.00;99656.71;1759020;81;20993;-89
2021/08/06 22:33:56;;;;;;;3.70;2.27;;;;;;;17.36;100.00;99655.23;1700324;83;21032;-95
2021/08/06 22:36:23;;;;;;;4.28;2.20;;;;;;;17.30;100.00;99661.53;1674010;85;21550;-88
2021/08/06 22:38:50;;;;;;;5.30;3.05;;;;;;;17.28;100.00;99661.06;1713233;82;21033;-94
2021/08/06 22:41:17;;;;;;;3.50;2.35;;;;;;;17.26;100.00;99659.80;1716264;82;21061;-95
2021/08/06 22:43:43;;;;;;;6.92;2.22;;;;;;;17.18;100.00;99652.68;1736420;82;21060;-95
2021/08/06 22:46:10;;;;;;;4.67;2.67;;;;;;;17.13;100.00;99665.30;1717809;82;21571;-95
2021/08/06 22:48:37;;;;;;;3.80;2.10;;;;;;;17.10;100.00;99671.51;1725222;82;21523;-94
2021/08/06 22:51:04;;;;;;;3.70;2.58;;;;;;;17.11;100.00;99682.80;1708201;82;21219;-89
2021/08/06 22:53:32;;;;;;;5.75;2.27;;;;;;;17.08;100.00;99683.46;1736165;82;21057;-93
2021/08/06 22:55:58;;;;;;;5.28;2.70;;;;;;;17.08;100.00;99681.28;1688755;82;21576;-95
2021/08/06 22:58:25;;;;;;;3.80;2.30;;;;;;;17.07;100.00;99681.86;1715342;82;21006;-90
2021/08/06 23:00:52;;;;;;;3.83;3.35;;;;;;;17.08;100.00;99699.22;1738119;82;21009;-89
2021/08/06 23:03:18;;;;;;;3.62;2.47;;;;;;;17.06;100.00;99700.13;1711752;82;21067;-95
2021/08/06 23:05:45;;;;;;;5.78;2.80;;;;;;;17.05;100.00;99700.71;1719895;82;21064;-95
2021/08/06 23:08:11;;;;;;;3.83;2.83;;;;;;;17.06;100.00;99711.17;1709158;81;21048;-89
2021/08/06 23:10:40;;;;;;;3.42;2.17;;;;;;;17.05;100.00;99720.61;1735783;81;21060;-89
2021/08/06 23:13:08;;;;;;;2.52;2.08;;;;;;;17.04;100.00;99721.19;1718992;82;21019;-95
2021/08/06 23:15:35;;;;;;;5.45;2.95;;;;;;;17.05;100.00;99724.17;1730638;82;21064;-94
2021/08/06 23:18:03;;;;;;;7.35;2.67;;;;;;;17.08;100.00;99735.91;1725514;82;21060;-89
2021/08/06 23:20:30;;;;;;;4.03;2.45;;;;;;;17.09;100.00;99733.97;1711609;82;21627;-94
2021/08/06 23:22:57;;;;;;;3.70;2.25;;;;;;;17.09;100.00;99730.63;1737628;82;21048;-89
2021/08/06 23:25:24;;;;;;;4.42;2.77;;;;;;;17.12;100.00;99740.98;1732318;82;21111;-89
2021/08/06 23:27:50;;;;;;;5.47;3.25;;;;;;;17.14;100.00;99734.56;1722962;82;21052;-90
2021/08/06 23:30:17;;;;;;;3.92;2.25;;;;;;;17.15;100.00;99743.06;1738094;82;21057;-89
2021/08/06 23:32:44;;;;;;;6.03;2.95;;;;;;;17.18;100.00;99748.47;1738413;81;21045;-94
2021/08/06 23:35:12;;;;;;;5.75;2.52;;;;;;;17.16;100.00;99744.69;1732926;81;21068;-90
2021/08/06 23:37:40;;;;;;;5.87;2.08;;;;;;;17.15;100.00;99751.34;1736347;82;21048;-89
2021/08/06 23:40:11;;;;;;;4.65;2.30;;;;;;;17.17;100.00;99743.53;1753569;81;21032;-94
2021/08/06 23:42:37;;;;;;;4.47;1.90;;;;;;;17.17;100.00;99736.63;1739105;82;21055;-89
2021/08/06 23:45:05;;;;;;;4.67;2.95;;;;;;;17.19;100.00;99741.24;1717279;81;21486;-88
2021/08/06 23:47:31;;;;;;;5.08;3.00;;;;;;;17.19;100.00;99739.86;1702111;83;21604;-93
2021/08/06 23:49:57;;;;;;;3.98;2.45;;;;;;;17.19;100.00;99741.24;1724156;83;21526;-87
2021/08/06 23:52:24;;;;;;;3.95;2.60;;;;;;;17.18;100.00;99741.02;1718602;81;21092;-92
2021/08/06 23:54:51;;;;;;;3.77;2.58;;;;;;;17.18;100.00;99742.40;1694609;82;21095;-93
2021/08/06 23:57:18;;;;;;;5.05;2.40;;;;;;;17.17;100.00;99740.77;1707779;81;21554;-87
2021/08/06 23:59:45;;;;;;;3.27;2.45;;;;;;;17.17;100.00;99739.39;1711867;83;21756;-93
